sensor_id;sensor_type;location;lat;lon;timestamp;P1;durP1;ratioP1;P2;durP2;ratioP2
6723;SDS011;3399;52.530;13.304;2023-11-19T00:01:00;11.30;;;7.23;;
6723;SDS011;3399;52.530;13.304;2023-11-19T00:03:26;9.40;;;6.67;;
6723;SDS011;3399;52.530;13.304;2023-11-19T00:05:51;9.60;;;6.47;;
6723;SDS011;3399;52.530;13.304;2023-11-19T00:08:17;8.77;;;7.60;;
6723;SDS011;3399;52.530;13.304;2023-11-19T00:10:43;9.40;;;7.83;;
6723;SDS011;3399;52.530;13.304;2023-11-19T00:13:09;9.67;;;8.00;;
6723;SDS011;3399;52.530;13.304;2023-11-19T00:15:35;7.77;;;6.67;;
6723;SDS011;3399;52.530;13.304;2023-11-19T00:18:00;8.83;;;7.77;;
6723;SDS011;3399;52.530;13.304;2023-11-19T00:20:29;9.03;;;6.97;;
6723;SDS011;3399;52.530;13.304;2023-11-19T00:22:55;8.13;;;6.77;;
6723;SDS011;3399;52.530;13.304;2023-11-19T00:25:21;7.90;;;7.10;;
6723;SDS011;3399;52.530;13.304;2023-11-19T00:27:46;10.97;;;7.27;;
6723;SDS011;3399;52.530;13.304;2023-11-19T00:30:15;7.10;;;6.40;;
6723;SDS011;3399;52.530;13.304;2023-11-19T00:32:41;8.47;;;7.67;;
6723;SDS011;3399;52.530;13.304;2023-11-19T00:35:07;8.47;;;7.07;;
6723;SDS011;3399;52.530;13.304;2023-11-19T00:37:35;7.40;;;6.63;;
6723;SDS011;3399;52.530;13.304;2023-11-19T00:40:00;7.77;;;7.00;;
6723;SDS011;3399;52.530;13.304;2023-11-19T00:42:26;8.07;;;7.20;;
6723;SDS011;3399;52.530;13.304;2023-11-19T00:44:51;8.13;;;7.27;;
6723;SDS011;3399;52.530;13.304;2023-11-19T00:47:17;8.03;;;6.53;;
6723;SDS011;3399;52.530;13.304;2023-11-19T00:49:48;6.93;;;6.20;;
6723;SDS011;3399;52.530;13.304;2023-11-19T00:52:15;7.37;;;6.67;;
6723;SDS011;3399;52.530;13.304;2023-11-19T00:54:41;8.23;;;7.30;;
6723;SDS011;3399;52.530;13.304;2023-11-19T00:57:06;6.17;;;5.53;;
6723;SDS011;3399;52.530;13.304;2023-11-19T00:59:32;7.57;;;6.40;;
6723;SDS011;3399;52.530;13.304;2023-11-19T01:01:57;6.43;;;5.87;;
6723;SDS011;3399;52.530;13.304;2023-11-19T01:04:27;7.00;;;6.40;;
6723;SDS011;3399;52.530;13.304;2023-11-19T01:06:54;6.83;;;6.10;;
6723;SDS011;3399;52.530;13.304;2023-11-19T01:09:19;5.97;;;5.37;;
6723;SDS011;3399;52.530;13.304;2023-11-19T01:11:45;5.83;;;5.10;;
6723;SDS011;3399;52.530;13.304;2023-11-19T01:14:10;7.50;;;6.17;;
6723;SDS011;3399;52.530;13.304;2023-11-19T01:16:36;7.87;;;6.00;;
6723;SDS011;3399;52.530;13.304;2023-11-19T01:19:01;7.20;;;5.57;;
6723;SDS011;3399;52.530;13.304;2023-11-19T01:21:29;9.20;;;6.67;;
6723;SDS011;3399;52.530;13.304;2023-11-19T01:23:55;6.33;;;5.60;;
6723;SDS011;3399;52.530;13.304;2023-11-19T01:26:22;6.70;;;6.10;;
6723;SDS011;3399;52.530;13.304;2023-11-19T01:28:47;5.80;;;5.13;;
6723;SDS011;3399;52.530;13.304;2023-11-19T01:31:16;8.10;;;6.20;;
6723;SDS011;3399;52.530;13.304;2023-11-19T01:33:42;8.27;;;5.03;;
6723;SDS011;3399;52.530;13.304;2023-11-19T01:36:08;6.80;;;5.83;;
6723;SDS011;3399;52.530;13.304;2023-11-19T01:38:34;8.77;;;5.40;;
6723;SDS011;3399;52.530;13.304;2023-11-19T01:41:00;6.60;;;6.00;;
6723;SDS011;3399;52.530;13.304;2023-11-19T01:43:46;7.20;;;6.17;;
6723;SDS011;3399;52.530;13.304;2023-11-19T01:46:12;8.70;;;6.43;;
6723;SDS011;3399;52.530;13.304;2023-11-19T01:48:42;6.07;;;5.47;;
6723;SDS011;3399;52.530;13.304;2023-11-19T01:51:10;6.33;;;5.73;;
6723;SDS011;3399;52.530;13.304;2023-11-19T01:53:37;7.50;;;6.10;;
6723;SDS011;3399;52.530;13.304;2023-11-19T01:56:04;6.17;;;5.60;;
6723;SDS011;3399;52.530;13.304;2023-11-19T01:58:33;6.20;;;5.60;;
6723;SDS011;3399;52.530;13.304;2023-11-19T02:01:00;6.63;;;6.00;;
6723;SDS011;3399;52.530;13.304;2023-11-19T02:03:28;6.90;;;6.00;;
6723;SDS011;3399;52.530;13.304;2023-11-19T02:05:56;10.23;;;6.07;;
6723;SDS011;3399;52.530;13.304;2023-11-19T02:08:22;9.53;;;5.50;;
6723;SDS011;3399;52.530;13.304;2023-11-19T02:10:48;6.43;;;5.33;;
6723;SDS011;3399;52.530;13.304;2023-11-19T02:13:13;6.60;;;5.60;;
6723;SDS011;3399;52.530;13.304;2023-11-19T02:15:41;5.87;;;5.27;;
6723;SDS011;3399;52.530;13.304;2023-11-19T02:18:19;6.47;;;5.70;;
6723;SDS011;3399;52.530;13.304;2023-11-19T02:20:52;6.53;;;5.43;;
6723;SDS011;3399;52.530;13.304;2023-11-19T02:23:19;6.00;;;5.40;;
6723;SDS011;3399;52.530;13.304;2023-11-19T02:25:54;6.77;;;5.23;;
6723;SDS011;3399;52.530;13.304;2023-11-19T02:28:30;6.43;;;5.57;;
6723;SDS011;3399;52.530;13.304;2023-11-19T02:30:57;6.50;;;5.77;;
6723;SDS011;3399;52.530;13.304;2023-11-19T02:33:23;6.37;;;5.77;;
6723;SDS011;3399;52.530;13.304;2023-11-19T02:35:49;6.13;;;5.03;;
6723;SDS011;3399;52.530;13.304;2023-11-19T02:38:16;6.23;;;5.60;;
6723;SDS011;3399;52.530;13.304;2023-11-19T02:40:42;5.77;;;5.27;;
6723;SDS011;3399;52.530;13.304;2023-11-19T02:43:07;6.20;;;5.60;;
6723;SDS011;3399;52.530;13.304;2023-11-19T02:45:33;5.90;;;5.30;;
6723;SDS011;3399;52.530;13.304;2023-11-19T02:47:59;6.20;;;5.60;;
6723;SDS011;3399;52.530;13.304;2023-11-19T02:50:27;6.07;;;5.57;;
6723;SDS011;3399;52.530;13.304;2023-11-19T02:52:53;5.87;;;4.90;;
6723;SDS011;3399;52.530;13.304;2023-11-19T02:55:21;5.50;;;4.80;;
6723;SDS011;3399;52.530;13.304;2023-11-19T02:57:48;5.50;;;4.90;;
6723;SDS011;3399;52.530;13.304;2023-11-19T03:02:41;6.17;;;5.57;;
6723;SDS011;3399;52.530;13.304;2023-11-19T03:05:14;6.40;;;5.13;;
6723;SDS011;3399;52.530;13.304;2023-11-19T03:07:41;5.97;;;5.10;;
6723;SDS011;3399;52.530;13.304;2023-11-19T03:10:09;5.60;;;5.10;;
6723;SDS011;3399;52.530;13.304;2023-11-19T03:12:38;5.93;;;4.67;;
6723;SDS011;3399;52.530;13.304;2023-11-19T03:15:04;5.70;;;5.03;;
6723;SDS011;3399;52.530;13.304;2023-11-19T03:17:30;6.63;;;5.30;;
6723;SDS011;3399;52.530;13.304;2023-11-19T03:19:56;5.50;;;5.03;;
6723;SDS011;3399;52.530;13.304;2023-11-19T03:22:21;5.17;;;4.67;;
6723;SDS011;3399;52.530;13.304;2023-11-19T03:24:47;4.93;;;4.43;;
6723;SDS011;3399;52.530;13.304;2023-11-19T03:27:15;5.97;;;5.17;;
6723;SDS011;3399;52.530;13.304;2023-11-19T03:29:40;5.27;;;4.77;;
6723;SDS011;3399;52.530;13.304;2023-11-19T03:32:06;5.73;;;4.90;;
6723;SDS011;3399;52.530;13.304;2023-11-19T03:34:32;5.43;;;4.93;;
6723;SDS011;3399;52.530;13.304;2023-11-19T03:36:57;4.97;;;4.57;;
6723;SDS011;3399;52.530;13.304;2023-11-19T03:39:23;5.67;;;4.87;;
6723;SDS011;3399;52.530;13.304;2023-11-19T03:41:50;5.50;;;5.00;;
6723;SDS011;3399;52.530;13.304;2023-11-19T03:44:15;5.43;;;4.93;;
6723;SDS011;3399;52.530;13.304;2023-11-19T03:46:41;6.40;;;4.73;;
6723;SDS011;3399;52.530;13.304;2023-11-19T03:49:07;6.03;;;5.43;;
6723;SDS011;3399;52.530;13.304;2023-11-19T03:51:32;7.60;;;5.50;;
6723;SDS011;3399;52.530;13.304;2023-11-19T03:53:59;7.93;;;5.43;;
6723;SDS011;3399;52.530;13.304;2023-11-19T03:56:25;8.27;;;5.90;;
6723;SDS011;3399;52.530;13.304;2023-11-19T03:58:52;4.93;;;4.53;;
6723;SDS011;3399;52.530;13.304;2023-11-19T04:01:17;8.20;;;5.27;;
6723;SDS011;3399;52.530;13.304;2023-11-19T04:03:43;10.13;;;5.80;;
6723;SDS011;3399;52.530;13.304;2023-11-19T04:06:09;5.77;;;5.13;;
6723;SDS011;3399;52.530;13.304;2023-11-19T04:08:34;9.00;;;5.87;;
6723;SDS011;3399;52.530;13.304;2023-11-19T04:11:00;8.43;;;6.50;;
6723;SDS011;3399;52.530;13.304;2023-11-19T04:13:27;8.00;;;6.17;;
6723;SDS011;3399;52.530;13.304;2023-11-19T04:15:53;6.57;;;5.87;;
6723;SDS011;3399;52.530;13.304;2023-11-19T04:18:19;7.23;;;6.10;;
6723;SDS011;3399;52.530;13.304;2023-11-19T04:20:44;6.40;;;5.70;;
6723;SDS011;3399;52.530;13.304;2023-11-19T04:23:09;6.03;;;5.10;;
6723;SDS011;3399;52.530;13.304;2023-11-19T04:25:36;6.37;;;4.73;;
6723;SDS011;3399;52.530;13.304;2023-11-19T04:28:02;8.40;;;6.83;;
6723;SDS011;3399;52.530;13.304;2023-11-19T04:30:28;6.33;;;5.73;;
6723;SDS011;3399;52.530;13.304;2023-11-19T04:32:53;6.67;;;6.07;;
6723;SDS011;3399;52.530;13.304;2023-11-19T04:35:19;6.60;;;5.93;;
6723;SDS011;3399;52.530;13.304;2023-11-19T04:37:44;6.40;;;5.80;;
6723;SDS011;3399;52.530;13.304;2023-11-19T04:40:10;6.40;;;5.80;;
6723;SDS011;3399;52.530;13.304;2023-11-19T04:42:37;7.90;;;5.50;;
6723;SDS011;3399;52.530;13.304;2023-11-19T04:45:05;7.53;;;6.83;;
6723;SDS011;3399;52.530;13.304;2023-11-19T04:47:32;6.87;;;6.17;;
6723;SDS011;3399;52.530;13.304;2023-11-19T04:49:58;8.10;;;6.63;;
6723;SDS011;3399;52.530;13.304;2023-11-19T04:52:23;7.20;;;6.50;;
6723;SDS011;3399;52.530;13.304;2023-11-19T04:54:49;8.30;;;6.67;;
6723;SDS011;3399;52.530;13.304;2023-11-19T04:57:14;8.50;;;6.50;;
6723;SDS011;3399;52.530;13.304;2023-11-19T04:59:40;7.87;;;6.53;;
6723;SDS011;3399;52.530;13.304;2023-11-19T05:02:08;7.53;;;6.37;;
6723;SDS011;3399;52.530;13.304;2023-11-19T05:04:34;7.37;;;5.60;;
6723;SDS011;3399;52.530;13.304;2023-11-19T05:07:00;6.23;;;5.30;;
6723;SDS011;3399;52.530;13.304;2023-11-19T05:09:25;7.57;;;6.00;;
6723;SDS011;3399;52.530;13.304;2023-11-19T05:11:51;9.13;;;6.27;;
6723;SDS011;3399;52.530;13.304;2023-11-19T05:14:17;7.33;;;6.63;;
6723;SDS011;3399;52.530;13.304;2023-11-19T05:16:44;6.53;;;5.93;;
6723;SDS011;3399;52.530;13.304;2023-11-19T05:19:10;6.83;;;6.23;;
6723;SDS011;3399;52.530;13.304;2023-11-19T05:21:35;7.30;;;6.50;;
6723;SDS011;3399;52.530;13.304;2023-11-19T05:24:01;5.90;;;5.30;;
6723;SDS011;3399;52.530;13.304;2023-11-19T05:26:30;7.13;;;6.43;;
6723;SDS011;3399;52.530;13.304;2023-11-19T05:28:56;7.43;;;6.27;;
6723;SDS011;3399;52.530;13.304;2023-11-19T05:31:21;6.37;;;5.77;;
6723;SDS011;3399;52.530;13.304;2023-11-19T05:33:47;7.30;;;6.47;;
6723;SDS011;3399;52.530;13.304;2023-11-19T05:36:13;6.00;;;5.40;;
6723;SDS011;3399;52.530;13.304;2023-11-19T05:38:39;6.30;;;5.77;;
6723;SDS011;3399;52.530;13.304;2023-11-19T05:41:05;7.17;;;5.67;;
6723;SDS011;3399;52.530;13.304;2023-11-19T05:43:31;5.87;;;5.37;;
6723;SDS011;3399;52.530;13.304;2023-11-19T05:45:57;5.90;;;5.30;;
6723;SDS011;3399;52.530;13.304;2023-11-19T05:48:24;6.20;;;5.60;;
6723;SDS011;3399;52.530;13.304;2023-11-19T05:50:51;6.43;;;5.83;;
6723;SDS011;3399;52.530;13.304;2023-11-19T05:53:17;6.43;;;5.70;;
6723;SDS011;3399;52.530;13.304;2023-11-19T05:55:42;7.37;;;6.10;;
6723;SDS011;3399;52.530;13.304;2023-11-19T05:58:19;8.73;;;6.80;;
6723;SDS011;3399;52.530;13.304;2023-11-19T06:00:54;5.67;;;4.93;;
6723;SDS011;3399;52.530;13.304;2023-11-19T06:03:20;6.23;;;5.63;;
6723;SDS011;3399;52.530;13.304;2023-11-19T06:05:47;6.53;;;5.93;;
6723;SDS011;3399;52.530;13.304;2023-11-19T06:08:13;6.13;;;5.53;;
6723;SDS011;3399;52.530;13.304;2023-11-19T06:10:43;7.10;;;5.97;;
6723;SDS011;3399;52.530;13.304;2023-11-19T06:13:11;5.63;;;5.13;;
6723;SDS011;3399;52.530;13.304;2023-11-19T06:15:41;6.43;;;5.80;;
6723;SDS011;3399;52.530;13.304;2023-11-19T06:18:07;5.73;;;5.07;;
6723;SDS011;3399;52.530;13.304;2023-11-19T06:20:33;6.27;;;5.70;;
6723;SDS011;3399;52.530;13.304;2023-11-19T06:22:58;7.10;;;5.63;;
6723;SDS011;3399;52.530;13.304;2023-11-19T06:25:24;5.43;;;4.93;;
6723;SDS011;3399;52.530;13.304;2023-11-19T06:27:50;6.40;;;5.80;;
6723;SDS011;3399;52.530;13.304;2023-11-19T06:30:16;6.30;;;5.80;;
6723;SDS011;3399;52.530;13.304;2023-11-19T06:32:42;6.33;;;5.63;;
6723;SDS011;3399;52.530;13.304;2023-11-19T06:35:07;6.60;;;5.87;;
6723;SDS011;3399;52.530;13.304;2023-11-19T06:37:34;6.13;;;5.53;;
6723;SDS011;3399;52.530;13.304;2023-11-19T06:40:00;6.93;;;5.63;;
6723;SDS011;3399;52.530;13.304;2023-11-19T06:42:26;6.80;;;6.00;;
6723;SDS011;3399;52.530;13.304;2023-11-19T06:44:51;6.07;;;5.57;;
6723;SDS011;3399;52.530;13.304;2023-11-19T06:47:17;5.70;;;5.10;;
6723;SDS011;3399;52.530;13.304;2023-11-19T06:49:46;5.87;;;5.37;;
6723;SDS011;3399;52.530;13.304;2023-11-19T06:52:11;6.07;;;5.47;;
6723;SDS011;3399;52.530;13.304;2023-11-19T06:54:40;6.60;;;6.07;;
6723;SDS011;3399;52.530;13.304;2023-11-19T06:57:05;7.57;;;5.80;;
6723;SDS011;3399;52.530;13.304;2023-11-19T06:59:31;5.73;;;4.90;;
6723;SDS011;3399;52.530;13.304;2023-11-19T07:01:56;5.67;;;5.17;;
6723;SDS011;3399;52.530;13.304;2023-11-19T07:04:22;6.40;;;5.80;;
6723;SDS011;3399;52.530;13.304;2023-11-19T07:06:47;5.87;;;5.27;;
6723;SDS011;3399;52.530;13.304;2023-11-19T07:09:14;6.00;;;5.40;;
6723;SDS011;3399;52.530;13.304;2023-11-19T07:11:39;5.13;;;4.73;;
6723;SDS011;3399;52.530;13.304;2023-11-19T07:14:06;5.90;;;4.87;;
6723;SDS011;3399;52.530;13.304;2023-11-19T07:16:36;4.80;;;4.30;;
6723;SDS011;3399;52.530;13.304;2023-11-19T07:19:02;5.60;;;4.87;;
6723;SDS011;3399;52.530;13.304;2023-11-19T07:21:28;4.97;;;4.57;;
6723;SDS011;3399;52.530;13.304;2023-11-19T07:23:54;5.10;;;4.60;;
6723;SDS011;3399;52.530;13.304;2023-11-19T07:26:20;5.10;;;4.47;;
6723;SDS011;3399;52.530;13.304;2023-11-19T07:28:46;5.20;;;4.80;;
6723;SDS011;3399;52.530;13.304;2023-11-19T07:31:12;5.00;;;4.50;;
6723;SDS011;3399;52.530;13.304;2023-11-19T07:33:39;4.87;;;4.47;;
6723;SDS011;3399;52.530;13.304;2023-11-19T07:36:04;5.20;;;4.70;;
6723;SDS011;3399;52.530;13.304;2023-11-19T07:38:30;5.90;;;5.30;;
6723;SDS011;3399;52.530;13.304;2023-11-19T07:40:56;4.77;;;4.37;;
6723;SDS011;3399;52.530;13.304;2023-11-19T07:43:21;5.40;;;4.90;;
6723;SDS011;3399;52.530;13.304;2023-11-19T07:45:47;5.20;;;4.70;;
6723;SDS011;3399;52.530;13.304;2023-11-19T07:48:13;5.37;;;4.87;;
6723;SDS011;3399;52.530;13.304;2023-11-19T07:50:39;6.10;;;5.30;;
6723;SDS011;3399;52.530;13.304;2023-11-19T07:53:07;5.83;;;5.33;;
6723;SDS011;3399;52.530;13.304;2023-11-19T07:55:33;5.87;;;5.27;;
6723;SDS011;3399;52.530;13.304;2023-11-19T07:57:59;5.50;;;5.00;;
6723;SDS011;3399;52.530;13.304;2023-11-19T08:00:25;6.07;;;5.57;;
6723;SDS011;3399;52.530;13.304;2023-11-19T08:02:50;7.03;;;4.87;;
6723;SDS011;3399;52.530;13.304;2023-11-19T08:05:16;5.47;;;4.97;;
6723;SDS011;3399;52.530;13.304;2023-11-19T08:07:41;6.27;;;5.73;;
6723;SDS011;3399;52.530;13.304;2023-11-19T08:10:07;6.67;;;5.97;;
6723;SDS011;3399;52.530;13.304;2023-11-19T08:12:34;6.03;;;5.43;;
6723;SDS011;3399;52.530;13.304;2023-11-19T08:15:01;5.70;;;5.20;;
6723;SDS011;3399;52.530;13.304;2023-11-19T08:17:27;5.13;;;4.63;;
6723;SDS011;3399;52.530;13.304;2023-11-19T08:19:52;5.60;;;5.10;;
6723;SDS011;3399;52.530;13.304;2023-11-19T08:22:18;5.90;;;5.00;;
6723;SDS011;3399;52.530;13.304;2023-11-19T08:24:44;6.07;;;5.57;;
6723;SDS011;3399;52.530;13.304;2023-11-19T08:27:09;5.93;;;5.53;;
6723;SDS011;3399;52.530;13.304;2023-11-19T08:29:35;5.37;;;4.87;;
6723;SDS011;3399;52.530;13.304;2023-11-19T08:32:01;7.63;;;6.00;;
6723;SDS011;3399;52.530;13.304;2023-11-19T08:34:29;6.43;;;5.70;;
6723;SDS011;3399;52.530;13.304;2023-11-19T08:36:54;5.57;;;4.93;;
6723;SDS011;3399;52.530;13.304;2023-11-19T08:39:20;6.07;;;5.47;;
6723;SDS011;3399;52.530;13.304;2023-11-19T08:41:46;5.80;;;4.93;;
6723;SDS011;3399;52.530;13.304;2023-11-19T08:44:12;6.23;;;5.63;;
6723;SDS011;3399;52.530;13.304;2023-11-19T08:46:38;6.20;;;5.47;;
6723;SDS011;3399;52.530;13.304;2023-11-19T08:49:05;5.40;;;4.90;;
6723;SDS011;3399;52.530;13.304;2023-11-19T08:51:33;7.10;;;6.43;;
6723;SDS011;3399;52.530;13.304;2023-11-19T08:53:59;5.87;;;5.27;;
6723;SDS011;3399;52.530;13.304;2023-11-19T08:56:24;7.30;;;5.63;;
6723;SDS011;3399;52.530;13.304;2023-11-19T08:58:50;5.77;;;5.27;;
6723;SDS011;3399;52.530;13.304;2023-11-19T09:01:15;5.60;;;5.10;;
6723;SDS011;3399;52.530;13.304;2023-11-19T09:03:41;5.37;;;4.87;;
6723;SDS011;3399;52.530;13.304;2023-11-19T09:06:06;5.03;;;4.40;;
6723;SDS011;3399;52.530;13.304;2023-11-19T09:08:32;6.23;;;5.07;;
6723;SDS011;3399;52.530;13.304;2023-11-19T09:10:58;4.40;;;4.00;;
6723;SDS011;3399;52.530;13.304;2023-11-19T09:13:23;7.03;;;5.03;;
6723;SDS011;3399;52.530;13.304;2023-11-19T09:15:48;4.20;;;3.90;;
6723;SDS011;3399;52.530;13.304;2023-11-19T09:18:14;4.50;;;4.07;;
6723;SDS011;3399;52.530;13.304;2023-11-19T09:20:39;7.03;;;4.37;;
6723;SDS011;3399;52.530;13.304;2023-11-19T09:23:06;4.30;;;3.83;;
6723;SDS011;3399;52.530;13.304;2023-11-19T09:25:31;5.93;;;5.30;;
6723;SDS011;3399;52.530;13.304;2023-11-19T09:27:57;7.10;;;5.00;;
6723;SDS011;3399;52.530;13.304;2023-11-19T09:30:22;5.13;;;4.30;;
6723;SDS011;3399;52.530;13.304;2023-11-19T09:32:48;5.50;;;3.87;;
6723;SDS011;3399;52.530;13.304;2023-11-19T09:35:14;4.80;;;4.30;;
6723;SDS011;3399;52.530;13.304;2023-11-19T09:37:41;3.87;;;3.37;;
6723;SDS011;3399;52.530;13.304;2023-11-19T09:40:06;6.17;;;4.00;;
6723;SDS011;3399;52.530;13.304;2023-11-19T09:42:36;3.57;;;3.30;;
6723;SDS011;3399;52.530;13.304;2023-11-19T09:45:14;4.03;;;3.73;;
6723;SDS011;3399;52.530;13.304;2023-11-19T09:47:44;3.13;;;2.83;;
6723;SDS011;3399;52.530;13.304;2023-11-19T09:50:19;3.33;;;3.03;;
6723;SDS011;3399;52.530;13.304;2023-11-19T09:52:48;3.27;;;3.00;;
6723;SDS011;3399;52.530;13.304;2023-11-19T09:55:14;3.03;;;2.57;;
6723;SDS011;3399;52.530;13.304;2023-11-19T09:57:40;4.37;;;2.50;;
6723;SDS011;3399;52.530;13.304;2023-11-19T10:00:09;3.80;;;2.13;;
6723;SDS011;3399;52.530;13.304;2023-11-19T10:02:36;4.20;;;2.57;;
6723;SDS011;3399;52.530;13.304;2023-11-19T10:05:04;4.53;;;2.57;;
6723;SDS011;3399;52.530;13.304;2023-11-19T10:07:32;3.10;;;2.50;;
6723;SDS011;3399;52.530;13.304;2023-11-19T10:09:59;6.00;;;2.37;;
6723;SDS011;3399;52.530;13.304;2023-11-19T10:12:26;2.47;;;1.97;;
6723;SDS011;3399;52.530;13.304;2023-11-19T10:14:53;2.60;;;2.40;;
6723;SDS011;3399;52.530;13.304;2023-11-19T10:17:22;1.80;;;1.70;;
6723;SDS011;3399;52.530;13.304;2023-11-19T10:19:54;2.37;;;2.03;;
6723;SDS011;3399;52.530;13.304;2023-11-19T10:22:20;5.33;;;2.00;;
6723;SDS011;3399;52.530;13.304;2023-11-19T10:24:47;3.20;;;2.20;;
6723;SDS011;3399;52.530;13.304;2023-11-19T10:27:12;5.67;;;1.83;;
6723;SDS011;3399;52.530;13.304;2023-11-19T10:29:39;4.03;;;2.30;;
6723;SDS011;3399;52.530;13.304;2023-11-19T10:32:05;4.63;;;1.90;;
6723;SDS011;3399;52.530;13.304;2023-11-19T10:34:31;7.10;;;2.47;;
6723;SDS011;3399;52.530;13.304;2023-11-19T10:36:56;4.73;;;2.30;;
6723;SDS011;3399;52.530;13.304;2023-11-19T10:39:22;4.27;;;1.83;;
6723;SDS011;3399;52.530;13.304;2023-11-19T10:41:49;3.73;;;1.97;;
6723;SDS011;3399;52.530;13.304;2023-11-19T10:44:30;5.57;;;2.37;;
6723;SDS011;3399;52.530;13.304;2023-11-19T10:47:05;11.33;;;2.43;;
6723;SDS011;3399;52.530;13.304;2023-11-19T10:49:33;6.67;;;2.07;;
6723;SDS011;3399;52.530;13.304;2023-11-19T10:52:00;3.70;;;1.97;;
6723;SDS011;3399;52.530;13.304;2023-11-19T10:54:26;6.33;;;1.77;;
6723;SDS011;3399;52.530;13.304;2023-11-19T10:56:55;4.63;;;2.20;;
6723;SDS011;3399;52.530;13.304;2023-11-19T10:59:26;3.80;;;2.33;;
6723;SDS011;3399;52.530;13.304;2023-11-19T11:01:55;5.17;;;2.53;;
6723;SDS011;3399;52.530;13.304;2023-11-19T11:04:25;4.03;;;2.70;;
6723;SDS011;3399;52.530;13.304;2023-11-19T11:06:52;10.10;;;2.53;;
6723;SDS011;3399;52.530;13.304;2023-11-19T11:09:23;11.07;;;2.53;;
6723;SDS011;3399;52.530;13.304;2023-11-19T11:11:51;7.57;;;3.90;;
6723;SDS011;3399;52.530;13.304;2023-11-19T11:14:18;10.20;;;2.60;;
6723;SDS011;3399;52.530;13.304;2023-11-19T11:16:47;8.50;;;3.10;;
6723;SDS011;3399;52.530;13.304;2023-11-19T11:19:15;9.40;;;2.60;;
6723;SDS011;3399;52.530;13.304;2023-11-19T11:21:42;10.47;;;2.43;;
6723;SDS011;3399;52.530;13.304;2023-11-19T11:24:27;6.67;;;3.17;;
6723;SDS011;3399;52.530;13.304;2023-11-19T11:27:30;6.07;;;3.73;;
6723;SDS011;3399;52.530;13.304;2023-11-19T11:30:16;6.90;;;2.80;;
6723;SDS011;3399;52.530;13.304;2023-11-19T11:38:11;6.03;;;2.33;;
6723;SDS011;3399;52.530;13.304;2023-11-19T11:40:39;11.83;;;2.93;;
6723;SDS011;3399;52.530;13.304;2023-11-19T11:43:12;7.10;;;2.17;;
6723;SDS011;3399;52.530;13.304;2023-11-19T11:46:37;8.47;;;2.00;;
6723;SDS011;3399;52.530;13.304;2023-11-19T11:49:02;7.70;;;2.50;;
6723;SDS011;3399;52.530;13.304;2023-11-19T12:02:14;8.83;;;3.07;;
6723;SDS011;3399;52.530;13.304;2023-11-19T12:04:41;9.50;;;3.17;;
6723;SDS011;3399;52.530;13.304;2023-11-19T12:07:08;10.87;;;3.67;;
6723;SDS011;3399;52.530;13.304;2023-11-19T12:09:41;13.47;;;3.47;;
6723;SDS011;3399;52.530;13.304;2023-11-19T12:12:28;12.70;;;3.73;;
6723;SDS011;3399;52.530;13.304;2023-11-19T12:15:07;7.17;;;3.37;;
6723;SDS011;3399;52.530;13.304;2023-11-19T12:17:37;10.33;;;2.67;;
6723;SDS011;3399;52.530;13.304;2023-11-19T12:20:06;12.03;;;5.07;;
6723;SDS011;3399;52.530;13.304;2023-11-19T12:22:39;12.53;;;3.67;;
6723;SDS011;3399;52.530;13.304;2023-11-19T12:25:06;14.80;;;3.33;;
6723;SDS011;3399;52.530;13.304;2023-11-19T12:27:33;11.60;;;3.70;;
6723;SDS011;3399;52.530;13.304;2023-11-19T12:30:09;8.83;;;3.30;;
6723;SDS011;3399;52.530;13.304;2023-11-19T12:32:41;12.43;;;3.33;;
6723;SDS011;3399;52.530;13.304;2023-11-19T12:35:08;10.17;;;3.17;;
6723;SDS011;3399;52.530;13.304;2023-11-19T12:37:47;8.83;;;2.67;;
6723;SDS011;3399;52.530;13.304;2023-11-19T12:40:14;12.37;;;3.83;;
6723;SDS011;3399;52.530;13.304;2023-11-19T12:42:41;14.73;;;3.47;;
6723;SDS011;3399;52.530;13.304;2023-11-19T12:58:35;11.20;;;3.77;;
6723;SDS011;3399;52.530;13.304;2023-11-19T13:03:37;16.07;;;4.23;;
6723;SDS011;3399;52.530;13.304;2023-11-19T13:08:36;9.43;;;3.43;;
6723;SDS011;3399;52.530;13.304;2023-11-19T13:11:05;10.93;;;3.70;;
6723;SDS011;3399;52.530;13.304;2023-11-19T13:13:32;14.70;;;4.10;;
6723;SDS011;3399;52.530;13.304;2023-11-19T13:16:15;13.47;;;4.30;;
6723;SDS011;3399;52.530;13.304;2023-11-19T13:18:40;10.27;;;3.63;;
6723;SDS011;3399;52.530;13.304;2023-11-19T13:21:05;14.37;;;3.97;;
6723;SDS011;3399;52.530;13.304;2023-11-19T13:23:31;16.03;;;4.83;;
6723;SDS011;3399;52.530;13.304;2023-11-19T13:25:56;6.13;;;3.93;;
6723;SDS011;3399;52.530;13.304;2023-11-19T13:28:22;19.83;;;3.67;;
6723;SDS011;3399;52.530;13.304;2023-11-19T13:30:47;14.70;;;3.97;;
6723;SDS011;3399;52.530;13.304;2023-11-19T13:33:13;9.13;;;4.17;;
6723;SDS011;3399;52.530;13.304;2023-11-19T13:35:38;17.90;;;3.80;;
6723;SDS011;3399;52.530;13.304;2023-11-19T13:38:07;15.87;;;3.53;;
6723;SDS011;3399;52.530;13.304;2023-11-19T13:40:33;17.90;;;4.23;;
6723;SDS011;3399;52.530;13.304;2023-11-19T13:42:59;14.87;;;4.37;;
6723;SDS011;3399;52.530;13.304;2023-11-19T13:45:25;15.97;;;4.00;;
6723;SDS011;3399;52.530;13.304;2023-11-19T13:47:50;15.03;;;3.80;;
6723;SDS011;3399;52.530;13.304;2023-11-19T13:50:16;15.37;;;4.03;;
6723;SDS011;3399;52.530;13.304;2023-11-19T13:52:42;14.70;;;4.30;;
6723;SDS011;3399;52.530;13.304;2023-11-19T13:55:10;12.23;;;4.60;;
6723;SDS011;3399;52.530;13.304;2023-11-19T13:57:36;14.57;;;3.47;;
6723;SDS011;3399;52.530;13.304;2023-11-19T14:00:03;18.97;;;5.70;;
6723;SDS011;3399;52.530;13.304;2023-11-19T14:02:37;14.77;;;4.87;;
6723;SDS011;3399;52.530;13.304;2023-11-19T14:05:06;19.60;;;4.40;;
6723;SDS011;3399;52.530;13.304;2023-11-19T14:07:33;19.83;;;4.97;;
6723;SDS011;3399;52.530;13.304;2023-11-19T14:09:58;16.97;;;4.77;;
6723;SDS011;3399;52.530;13.304;2023-11-19T14:12:24;13.67;;;4.17;;
6723;SDS011;3399;52.530;13.304;2023-11-19T14:14:49;15.13;;;4.60;;
6723;SDS011;3399;52.530;13.304;2023-11-19T14:17:15;13.97;;;3.70;;
6723;SDS011;3399;52.530;13.304;2023-11-19T14:19:43;19.90;;;5.47;;
6723;SDS011;3399;52.530;13.304;2023-11-19T14:22:09;17.77;;;5.10;;
6723;SDS011;3399;52.530;13.304;2023-11-19T14:24:36;16.90;;;4.63;;
6723;SDS011;3399;52.530;13.304;2023-11-19T14:27:02;19.77;;;3.90;;
6723;SDS011;3399;52.530;13.304;2023-11-19T14:29:27;12.87;;;3.63;;
6723;SDS011;3399;52.530;13.304;2023-11-19T14:31:54;12.40;;;4.27;;
6723;SDS011;3399;52.530;13.304;2023-11-19T14:34:21;11.10;;;3.50;;
6723;SDS011;3399;52.530;13.304;2023-11-19T14:36:47;16.23;;;3.50;;
6723;SDS011;3399;52.530;13.304;2023-11-19T14:39:13;13.33;;;5.00;;
6723;SDS011;3399;52.530;13.304;2023-11-19T14:41:38;14.90;;;3.83;;
6723;SDS011;3399;52.530;13.304;2023-11-19T14:44:04;15.83;;;4.53;;
6723;SDS011;3399;52.530;13.304;2023-11-19T14:46:30;15.47;;;3.93;;
6723;SDS011;3399;52.530;13.304;2023-11-19T14:48:56;16.70;;;4.10;;
6723;SDS011;3399;52.530;13.304;2023-11-19T14:51:22;18.77;;;3.90;;
6723;SDS011;3399;52.530;13.304;2023-11-19T14:53:48;15.60;;;4.63;;
6723;SDS011;3399;52.530;13.304;2023-11-19T14:56:14;10.97;;;3.83;;
6723;SDS011;3399;52.530;13.304;2023-11-19T14:58:39;13.73;;;3.70;;
6723;SDS011;3399;52.530;13.304;2023-11-19T15:01:05;16.43;;;4.93;;
6723;SDS011;3399;52.530;13.304;2023-11-19T15:03:32;18.33;;;4.33;;
6723;SDS011;3399;52.530;13.304;2023-11-19T15:05:58;16.63;;;4.33;;
6723;SDS011;3399;52.530;13.304;2023-11-19T15:08:24;12.63;;;3.97;;
6723;SDS011;3399;52.530;13.304;2023-11-19T15:10:49;23.30;;;5.93;;
6723;SDS011;3399;52.530;13.304;2023-11-19T15:13:15;15.80;;;4.23;;
6723;SDS011;3399;52.530;13.304;2023-11-19T15:15:40;22.37;;;4.30;;
6723;SDS011;3399;52.530;13.304;2023-11-19T15:18:07;18.10;;;3.73;;
6723;SDS011;3399;52.530;13.304;2023-11-19T15:20:32;10.07;;;3.37;;
6723;SDS011;3399;52.530;13.304;2023-11-19T15:22:58;19.13;;;4.40;;
6723;SDS011;3399;52.530;13.304;2023-11-19T15:25:23;14.30;;;4.40;;
6723;SDS011;3399;52.530;13.304;2023-11-19T15:27:49;14.00;;;4.73;;
6723;SDS011;3399;52.530;13.304;2023-11-19T15:30:15;10.00;;;3.63;;
6723;SDS011;3399;52.530;13.304;2023-11-19T15:32:41;18.43;;;4.57;;
6723;SDS011;3399;52.530;13.304;2023-11-19T15:35:11;18.80;;;4.60;;